createdAt,value
2018-04-17T00:00:02.952Z,1015.39
2018-04-17T00:01:03.912Z,1015.39
2018-04-17T00:02:02.936Z,1015.38
2018-04-17T00:03:02.918Z,1015.43
2018-04-17T00:04:02.876Z,1015.43
2018-04-17T00:05:02.855Z,1015.42
2018-04-17T00:06:02.836Z,1015.45
2018-04-17T00:07:02.818Z,1015.44
2018-04-17T00:08:02.796Z,1015.45
2018-04-17T00:09:02.780Z,1015.43
2018-04-17T00:10:02.756Z,1015.48
2018-04-17T00:11:02.738Z,1015.49
2018-04-17T00:12:02.719Z,1015.49
2018-04-17T00:13:02.697Z,1015.47
2018-04-17T00:14:02.676Z,1015.50
2018-04-17T00:15:02.657Z,1015.50
2018-04-17T00:16:02.642Z,1015.54
2018-04-17T00:17:02.619Z,1015.53
2018-04-17T00:18:02.599Z,1015.52
2018-04-17T00:19:02.577Z,1015.49
2018-04-17T00:20:02.561Z,1015.55
2018-04-17T00:21:02.540Z,1015.54
2018-04-17T00:22:02.517Z,1015.57
2018-04-17T00:23:02.501Z,1015.57
2018-04-17T00:24:02.480Z,1015.55
2018-04-17T00:25:02.460Z,1015.56
2018-04-17T00:26:02.444Z,1015.59
2018-04-17T00:27:02.419Z,1015.57
2018-04-17T00:28:02.402Z,1015.55
2018-04-17T00:29:02.386Z,1015.61
2018-04-17T00:30:02.361Z,1015.57
2018-04-17T00:31:02.342Z,1015.56
2018-04-17T00:32:02.319Z,1015.56
2018-04-17T00:33:02.299Z,1015.55
2018-04-17T00:34:02.280Z,1015.57
2018-04-17T00:35:02.263Z,1015.58
2018-04-17T00:36:02.243Z,1015.55
2018-04-17T00:37:02.222Z,1015.54
2018-04-17T00:38:02.205Z,1015.57
2018-04-17T00:39:02.180Z,1015.57
2018-04-17T00:40:02.160Z,1015.56
2018-04-17T00:41:02.142Z,1015.57
2018-04-17T00:42:02.119Z,1015.58
2018-04-17T00:43:02.109Z,1015.59
2018-04-17T00:44:02.083Z,1015.56
2018-04-17T00:45:02.062Z,1015.60
2018-04-17T00:46:02.041Z,1015.58
2018-04-17T00:47:02.023Z,1015.61
2018-04-17T00:48:02.001Z,1015.62
2018-04-17T00:49:01.980Z,1015.63
2018-04-17T00:50:01.962Z,1015.64
2018-04-17T00:51:01.942Z,1015.66
2018-04-17T00:52:01.937Z,1015.62
2018-04-17T00:53:01.903Z,1015.67
2018-04-17T00:54:01.887Z,1015.67
2018-04-17T00:55:01.863Z,1015.72
2018-04-17T00:56:01.848Z,1015.69
2018-04-17T00:57:01.824Z,1015.70
2018-04-17T00:58:01.803Z,1015.73
2018-04-17T00:59:01.784Z,1015.73
2018-04-17T01:00:01.762Z,1015.73
2018-04-17T01:01:01.759Z,1015.77
2018-04-17T01:02:01.892Z,1015.75
2018-04-17T01:03:01.702Z,1015.79
2018-04-17T01:04:01.681Z,1015.78
2018-04-17T01:05:01.662Z,1015.77
2018-04-17T01:06:01.642Z,1015.78
2018-04-17T01:07:01.624Z,1015.82
2018-04-17T01:08:01.600Z,1015.82
2018-04-17T01:09:01.581Z,1015.83
2018-04-17T01:10:01.561Z,1015.81
2018-04-17T01:11:01.542Z,1015.78
2018-04-17T01:12:01.521Z,1015.81
2018-04-17T01:13:01.502Z,1015.83
2018-04-17T01:14:01.481Z,1015.87
2018-04-17T01:15:01.465Z,1015.84
2018-04-17T01:16:01.441Z,1015.84
2018-04-17T01:17:01.425Z,1015.86
2018-04-17T01:18:01.399Z,1015.84
2018-04-17T01:19:01.383Z,1015.84
2018-04-17T01:20:01.359Z,1015.85
2018-04-17T01:21:01.343Z,1015.87
2018-04-17T01:22:01.318Z,1015.91
2018-04-17T01:23:01.297Z,1015.91
2018-04-17T01:24:01.277Z,1015.91
2018-04-17T01:25:01.258Z,1015.93
2018-04-17T01:26:01.239Z,1015.96
2018-04-17T01:27:01.216Z,1015.95
2018-04-17T01:28:01.197Z,1015.95
2018-04-17T01:29:01.184Z,1015.96
2018-04-17T01:30:01.156Z,1015.95
2018-04-17T01:31:01.135Z,1015.96
2018-04-17T01:32:01.117Z,1015.99
2018-04-17T01:33:01.881Z,1016.02
2018-04-17T01:34:01.076Z,1016.02
2018-04-17T01:35:01.055Z,1016.07
2018-04-17T01:36:01.037Z,1016.06
2018-04-17T01:37:01.015Z,1016.08
2018-04-17T01:38:00.992Z,1016.06
2018-04-17T01:39:00.973Z,1016.10
2018-04-17T01:40:00.951Z,1016.08
2018-04-17T01:41:00.933Z,1016.09
2018-04-17T01:42:00.910Z,1016.08
2018-04-17T01:43:00.891Z,1016.12
2018-04-17T01:44:00.870Z,1016.09
2018-04-17T01:45:00.849Z,1016.09
2018-04-17T01:46:00.828Z,1016.08
2018-04-17T01:47:00.814Z,1016.11
2018-04-17T01:48:00.792Z,1016.16
2018-04-17T01:49:00.767Z,1016.17
2018-04-17T01:50:00.752Z,1016.14
2018-04-17T01:51:00.730Z,1016.18
2018-04-17T01:52:00.707Z,1016.13
2018-04-17T01:53:00.687Z,1016.15
2018-04-17T01:54:00.667Z,1016.12
2018-04-17T01:55:00.647Z,1016.13
2018-04-17T01:56:00.626Z,1016.11
2018-04-17T01:57:00.608Z,1016.12
2018-04-17T01:58:00.594Z,1016.15
2018-04-17T01:59:00.575Z,1016.11
2018-04-17T02:00:00.545Z,1016.10
2018-04-17T02:01:00.527Z,1016.13
2018-04-17T02:02:00.503Z,1016.13
2018-04-17T02:03:00.489Z,1016.14
2018-04-17T02:04:00.466Z,1016.09
2018-04-17T02:05:00.446Z,1016.07
2018-04-17T02:06:00.425Z,1016.10
2018-04-17T02:07:00.401Z,1016.10
2018-04-17T02:08:00.384Z,1016.10
2018-04-17T02:09:00.361Z,1016.13
2018-04-17T02:10:00.396Z,1016.10
2018-04-17T02:11:00.320Z,1016.06
2018-04-17T02:12:00.300Z,1016.09
2018-04-17T02:13:00.290Z,1016.11
2018-04-17T02:14:00.274Z,1016.15
2018-04-17T02:15:00.238Z,1016.14
2018-04-17T02:16:00.219Z,1016.13
2018-04-17T02:17:00.198Z,1016.21
2018-04-17T02:18:00.178Z,1016.20
2018-04-17T02:19:00.156Z,1016.20
2018-04-17T02:20:00.136Z,1016.18
2018-04-17T02:21:00.120Z,1016.19
2018-04-17T02:22:00.099Z,1016.22
2018-04-17T02:23:00.150Z,1016.22
2018-04-17T02:24:00.054Z,1016.22
2018-04-17T02:25:00.036Z,1016.25
2018-04-17T02:26:00.010Z,1016.24
2018-04-17T02:26:59.990Z,1016.25
2018-04-17T02:27:59.971Z,1016.25
2018-04-17T02:28:59.948Z,1016.28
2018-04-17T02:29:59.929Z,1016.28
2018-04-17T02:30:59.908Z,1016.29
2018-04-17T02:31:59.889Z,1016.30
2018-04-17T02:32:59.866Z,1016.32
2018-04-17T02:34:00.340Z,1016.34
2018-04-17T02:34:59.825Z,1016.35
2018-04-17T02:35:59.813Z,1016.34
2018-04-17T02:36:59.791Z,1016.35
2018-04-17T02:37:59.766Z,1016.41
2018-04-17T02:38:59.743Z,1016.46
2018-04-17T02:39:59.723Z,1016.42
2018-04-17T02:40:59.701Z,1016.44
2018-04-17T02:41:59.680Z,1016.44
2018-04-17T02:42:59.659Z,1016.44
2018-04-17T02:43:59.638Z,1016.45
2018-04-17T02:44:59.620Z,1016.50
2018-04-17T02:45:59.597Z,1016.47
2018-04-17T02:46:59.576Z,1016.47
2018-04-17T02:47:59.558Z,1016.47
2018-04-17T02:48:59.535Z,1016.50
2018-04-17T02:49:59.514Z,1016.48
2018-04-17T02:50:59.493Z,1016.48
2018-04-17T02:51:59.475Z,1016.52
2018-04-17T02:52:59.453Z,1016.54
2018-04-17T02:53:59.430Z,1016.56
2018-04-17T02:54:59.409Z,1016.54
2018-04-17T02:55:59.389Z,1016.55
2018-04-17T02:56:59.370Z,1016.55
2018-04-17T02:57:59.345Z,1016.53
2018-04-17T02:58:59.325Z,1016.55
2018-04-17T02:59:59.330Z,1016.45
2018-04-17T03:00:59.284Z,1016.49
2018-04-17T03:01:59.262Z,1016.51
2018-04-17T03:02:59.242Z,1016.53
2018-04-17T03:03:59.230Z,1016.48
2018-04-17T03:04:59.200Z,1016.47
2018-04-17T03:05:59.181Z,1016.46
2018-04-17T03:06:59.157Z,1016.49
2018-04-17T03:07:59.138Z,1016.47
2018-04-17T03:08:59.117Z,1016.44
2018-04-17T03:09:59.095Z,1016.45
2018-04-17T03:10:59.103Z,1016.44
2018-04-17T03:11:59.052Z,1016.44
2018-04-17T03:12:59.034Z,1016.45
2018-04-17T03:13:59.013Z,1016.46
2018-04-17T03:14:58.990Z,1016.47
2018-04-17T03:15:58.969Z,1016.50
2018-04-17T03:16:58.950Z,1016.48
2018-04-17T03:17:58.927Z,1016.48
2018-04-17T03:18:58.925Z,1016.43
2018-04-17T03:19:58.885Z,1016.48
2018-04-17T03:20:58.924Z,1016.52
2018-04-17T03:21:58.846Z,1016.50
2018-04-17T03:22:58.868Z,1016.50
2018-04-17T03:23:58.805Z,1016.50
2018-04-17T03:24:58.872Z,1016.48
2018-04-17T03:25:58.774Z,1016.47
2018-04-17T03:26:58.764Z,1016.48
2018-04-17T03:27:58.720Z,1016.46
2018-04-17T03:28:58.722Z,1016.46
2018-04-17T03:29:58.677Z,1016.49
2018-04-17T03:30:58.655Z,1016.51
2018-04-17T03:31:58.636Z,1016.49
2018-04-17T03:32:58.618Z,1016.52
2018-04-17T03:33:58.592Z,1016.53
2018-04-17T03:34:58.819Z,1016.51
2018-04-17T03:35:58.550Z,1016.52
2018-04-17T03:36:58.528Z,1016.55
2018-04-17T03:37:58.507Z,1016.54
2018-04-17T03:38:58.484Z,1016.55
2018-04-17T03:39:58.465Z,1016.54
2018-04-17T03:40:58.459Z,1016.53
2018-04-17T03:41:58.422Z,1016.52
2018-04-17T03:42:58.402Z,1016.51
2018-04-17T03:43:58.387Z,1016.48
2018-04-17T03:44:58.357Z,1016.51
2018-04-17T03:45:58.399Z,1016.53
2018-04-17T03:46:58.316Z,1016.52
2018-04-17T03:47:58.295Z,1016.55
2018-04-17T03:48:58.274Z,1016.54
2018-04-17T03:49:58.252Z,1016.52
2018-04-17T03:50:58.232Z,1016.48
2018-04-17T03:51:58.220Z,1016.51
2018-04-17T03:52:58.191Z,1016.50
2018-04-17T03:53:58.168Z,1016.50
2018-04-17T03:54:58.147Z,1016.47
2018-04-17T03:55:58.129Z,1016.53
2018-04-17T03:56:58.104Z,1016.52
2018-04-17T03:57:58.081Z,1016.49
2018-04-17T03:58:58.062Z,1016.46
2018-04-17T03:59:58.039Z,1016.48
2018-04-17T04:00:58.021Z,1016.43
2018-04-17T04:01:57.997Z,1016.42
2018-04-17T04:02:57.977Z,1016.40
2018-04-17T04:03:57.955Z,1016.42
2018-04-17T04:04:57.937Z,1016.41
2018-04-17T04:05:58.776Z,1016.41
2018-04-17T04:06:57.894Z,1016.43
2018-04-17T04:07:57.871Z,1016.42
2018-04-17T04:08:57.849Z,1016.44
2018-04-17T04:09:57.878Z,1016.48
2018-04-17T04:10:57.839Z,1016.51
2018-04-17T04:11:57.783Z,1016.50
2018-04-17T04:12:57.781Z,1016.54
2018-04-17T04:13:57.828Z,1016.52
2018-04-17T04:14:57.755Z,1016.55
2018-04-17T04:15:57.716Z,1016.55
2018-04-17T04:16:57.690Z,1016.56
2018-04-17T04:17:57.728Z,1016.56
2018-04-17T04:18:57.704Z,1016.60
2018-04-17T04:19:57.676Z,1016.65
2018-04-17T04:20:57.649Z,1016.64
2018-04-17T04:21:57.604Z,1016.66
2018-04-17T04:22:57.552Z,1016.63
2018-04-17T04:23:57.527Z,1016.65
2018-04-17T04:24:57.510Z,1016.66
2018-04-17T04:25:57.487Z,1016.68
2018-04-17T04:26:57.463Z,1016.67
2018-04-17T04:27:57.496Z,1016.66
2018-04-17T04:28:57.456Z,1016.70
2018-04-17T04:29:57.431Z,1016.68
2018-04-17T04:30:57.440Z,1016.69
2018-04-17T04:31:57.358Z,1016.74
2018-04-17T04:32:57.335Z,1016.73
2018-04-17T04:33:57.311Z,1016.76
2018-04-17T04:34:57.534Z,1016.79
2018-04-17T04:35:57.271Z,1016.79
2018-04-17T04:36:57.304Z,1016.85
2018-04-17T04:37:57.226Z,1016.86
2018-04-17T04:38:57.204Z,1016.83
2018-04-17T04:39:57.187Z,1016.83
2018-04-17T04:40:57.188Z,1016.85
2018-04-17T04:41:57.139Z,1016.79
2018-04-17T04:42:57.118Z,1016.84
2018-04-17T04:43:57.097Z,1016.84
2018-04-17T04:44:57.077Z,1016.90
2018-04-17T04:45:57.053Z,1016.93
2018-04-17T04:46:57.050Z,1016.97
2018-04-17T04:47:57.011Z,1016.96
2018-04-17T04:48:56.989Z,1016.95
2018-04-17T04:49:56.967Z,1016.97
2018-04-17T04:50:56.945Z,1016.98
2018-04-17T04:51:56.925Z,1016.98
2018-04-17T04:52:56.907Z,1017.04
2018-04-17T04:53:56.945Z,1017.04
2018-04-17T04:54:56.923Z,1017.01
2018-04-17T04:55:56.841Z,1017.06
2018-04-17T04:56:56.817Z,1017.08
2018-04-17T04:57:56.798Z,1017.05
2018-04-17T04:58:56.777Z,1017.08
2018-04-17T04:59:56.814Z,1017.09
2018-04-17T05:00:56.733Z,1017.10
2018-04-17T05:01:56.710Z,1017.10
2018-04-17T05:02:56.731Z,1017.14
2018-04-17T05:03:56.667Z,1017.12
2018-04-17T05:04:56.890Z,1017.17
2018-04-17T05:05:56.623Z,1017.19
2018-04-17T05:06:56.602Z,1017.19
2018-04-17T05:07:56.581Z,1017.25
2018-04-17T05:08:56.559Z,1017.28
2018-04-17T05:09:56.538Z,1017.27
2018-04-17T05:10:56.515Z,1017.26
2018-04-17T05:11:56.495Z,1017.31
2018-04-17T05:12:56.472Z,1017.31
2018-04-17T05:13:56.452Z,1017.30
2018-04-17T05:14:56.436Z,1017.33
2018-04-17T05:15:56.407Z,1017.34
2018-04-17T05:16:56.388Z,1017.37
2018-04-17T05:17:56.365Z,1017.37
2018-04-17T05:18:56.346Z,1017.35
2018-04-17T05:19:56.323Z,1017.36
2018-04-17T05:20:56.305Z,1017.39
2018-04-17T05:21:56.319Z,1017.39
2018-04-17T05:22:56.259Z,1017.42
2018-04-17T05:23:56.238Z,1017.41
2018-04-17T05:24:56.219Z,1017.44
2018-04-17T05:25:56.192Z,1017.49
2018-04-17T05:26:56.180Z,1017.54
2018-04-17T05:27:56.149Z,1017.56
2018-04-17T05:28:56.186Z,1017.55
2018-04-17T05:29:56.158Z,1017.60
2018-04-17T05:30:56.084Z,1017.63
2018-04-17T05:31:56.066Z,1017.69
2018-04-17T05:32:56.042Z,1017.67
2018-04-17T05:33:56.233Z,1017.69
2018-04-17T05:34:56.922Z,1017.74
2018-04-17T05:35:55.986Z,1017.75
2018-04-17T05:36:55.969Z,1017.77
2018-04-17T05:37:55.988Z,1017.79
2018-04-17T05:38:57.910Z,1017.82
2018-04-17T05:39:55.918Z,1017.85
2018-04-17T05:40:55.873Z,1017.86
2018-04-17T05:41:55.849Z,1017.87
2018-04-17T05:42:55.828Z,1017.92
2018-04-17T05:43:55.810Z,1017.94
2018-04-17T05:44:55.790Z,1017.97
2018-04-17T05:45:55.765Z,1017.98
2018-04-17T05:46:55.746Z,1018.00
2018-04-17T05:47:55.723Z,1018.04
2018-04-17T05:48:55.702Z,1018.02
2018-04-17T05:49:55.677Z,1018.04
2018-04-17T05:50:55.660Z,1018.02
2018-04-17T05:51:55.638Z,1018.03
2018-04-17T05:52:55.616Z,1018.01
2018-04-17T05:53:55.595Z,1018.07
2018-04-17T05:54:55.573Z,1018.07
2018-04-17T05:55:55.665Z,1018.09
2018-04-17T05:56:55.531Z,1018.14
2018-04-17T05:57:55.553Z,1018.21
2018-04-17T05:58:55.538Z,1018.23
2018-04-17T05:59:55.468Z,1018.25
2018-04-17T06:00:55.447Z,1018.28
2018-04-17T06:01:56.312Z,1018.33
2018-04-17T06:02:55.406Z,1018.35
2018-04-17T06:03:55.387Z,1018.35
2018-04-17T06:04:55.363Z,1018.29
2018-04-17T06:05:55.342Z,1018.27
2018-04-17T06:06:55.320Z,1018.26
2018-04-17T06:07:55.303Z,1018.22
2018-04-17T06:08:55.281Z,1018.23
2018-04-17T06:09:55.259Z,1018.27
2018-04-17T06:10:55.237Z,1018.27
2018-04-17T06:11:55.216Z,1018.27
2018-04-17T06:12:55.199Z,1018.33
2018-04-17T06:13:55.176Z,1018.26
2018-04-17T06:14:55.155Z,1018.31
2018-04-17T06:15:55.133Z,1018.32
2018-04-17T06:16:55.114Z,1018.32
2018-04-17T06:17:55.094Z,1018.34
2018-04-17T06:18:55.071Z,1018.35
2018-04-17T06:19:55.051Z,1018.35
2018-04-17T06:20:55.032Z,1018.33
2018-04-17T06:21:55.010Z,1018.30
2018-04-17T06:22:54.989Z,1018.30
2018-04-17T06:23:54.970Z,1018.27
2018-04-17T06:24:54.949Z,1018.29
2018-04-17T06:25:54.929Z,1018.27
2018-04-17T06:26:54.909Z,1018.23
2018-04-17T06:27:54.893Z,1018.27
2018-04-17T06:28:54.866Z,1018.32
2018-04-17T06:29:54.848Z,1018.32
2018-04-17T06:30:54.833Z,1018.35
2018-04-17T06:31:54.809Z,1018.38
2018-04-17T06:32:54.787Z,1018.38
2018-04-17T06:33:54.764Z,1018.42
2018-04-17T06:34:54.745Z,1018.36
2018-04-17T06:35:54.727Z,1018.39
2018-04-17T06:36:54.704Z,1018.39
2018-04-17T06:37:54.683Z,1018.40
2018-04-17T06:38:54.663Z,1018.42
2018-04-17T06:39:54.643Z,1018.39
2018-04-17T06:40:54.625Z,1018.35
2018-04-17T06:41:54.673Z,1018.38
2018-04-17T06:42:54.584Z,1018.39
2018-04-17T06:43:54.563Z,1018.41
2018-04-17T06:44:54.547Z,1018.43
2018-04-17T06:45:54.526Z,1018.42
2018-04-17T06:46:54.503Z,1018.42
2018-04-17T06:47:54.485Z,1018.45
2018-04-17T06:48:54.463Z,1018.45
2018-04-17T06:49:54.445Z,1018.42
2018-04-17T06:50:54.425Z,1018.41
2018-04-17T06:51:54.406Z,1018.42
2018-04-17T06:52:54.441Z,1018.43
2018-04-17T06:53:54.366Z,1018.46
2018-04-17T06:54:54.346Z,1018.45
2018-04-17T06:55:54.328Z,1018.51
2018-04-17T06:56:54.306Z,1018.43
2018-04-17T06:57:54.285Z,1018.43
2018-04-17T06:58:54.267Z,1018.46
2018-04-17T06:59:54.247Z,1018.48
2018-04-17T07:00:54.227Z,1018.50
2018-04-17T07:01:54.210Z,1018.51
2018-04-17T07:02:54.577Z,1018.54
2018-04-17T07:03:54.171Z,1018.56
2018-04-17T07:04:54.151Z,1018.54
2018-04-17T07:05:54.142Z,1018.56
2018-04-17T07:06:54.111Z,1018.60
2018-04-17T07:07:54.092Z,1018.60
2018-04-17T07:08:54.073Z,1018.58
2018-04-17T07:09:54.054Z,1018.57
2018-04-17T07:10:54.037Z,1018.58
2018-04-17T07:11:54.015Z,1018.56
2018-04-17T07:12:53.997Z,1018.56
2018-04-17T07:13:53.976Z,1018.55
2018-04-17T07:14:53.962Z,1018.54
2018-04-17T07:15:53.940Z,1018.59
2018-04-17T07:16:53.977Z,1018.60
2018-04-17T07:17:53.905Z,1018.59
2018-04-17T07:18:53.882Z,1018.61
2018-04-17T07:19:53.865Z,1018.64
2018-04-17T07:20:53.848Z,1018.63
2018-04-17T07:21:53.827Z,1018.57
2018-04-17T07:22:53.807Z,1018.59
2018-04-17T07:23:53.788Z,1018.59
2018-04-17T07:24:53.768Z,1018.63
2018-04-17T07:25:53.750Z,1018.62
2018-04-17T07:26:53.729Z,1018.65
2018-04-17T07:27:53.712Z,1018.66
2018-04-17T07:28:53.692Z,1018.67
2018-04-17T07:29:53.677Z,1018.67
2018-04-17T07:30:53.657Z,1018.69
2018-04-17T07:31:53.636Z,1018.68
2018-04-17T07:32:53.628Z,1018.75
2018-04-17T07:33:54.568Z,1018.79
2018-04-17T07:34:53.592Z,1018.80
2018-04-17T07:35:53.566Z,1018.81
2018-04-17T07:36:53.570Z,1018.84
2018-04-17T07:37:53.524Z,1018.81
2018-04-17T07:38:53.504Z,1018.88
2018-04-17T07:39:53.486Z,1018.87
2018-04-17T07:40:53.468Z,1018.88
2018-04-17T07:41:53.449Z,1018.89
2018-04-17T07:42:53.431Z,1018.90
2018-04-17T07:43:53.411Z,1018.91
2018-04-17T07:44:53.394Z,1018.90
2018-04-17T07:45:53.375Z,1018.91
2018-04-17T07:46:53.364Z,1018.88
2018-04-17T07:47:53.342Z,1018.88
2018-04-17T07:48:53.320Z,1018.87
2018-04-17T07:49:53.300Z,1018.90
2018-04-17T07:50:53.283Z,1018.88
2018-04-17T07:51:53.264Z,1018.85
2018-04-17T07:52:53.248Z,1018.87
2018-04-17T07:53:53.226Z,1018.86
2018-04-17T07:54:53.210Z,1018.89
2018-04-17T07:55:53.191Z,1018.90
2018-04-17T07:56:53.174Z,1018.89
2018-04-17T07:57:53.157Z,1018.87
2018-04-17T07:58:53.140Z,1018.91
2018-04-17T07:59:53.118Z,1018.92
2018-04-17T08:00:53.100Z,1018.93
2018-04-17T08:01:53.081Z,1018.96
2018-04-17T08:02:53.065Z,1018.96
2018-04-17T08:03:53.049Z,1018.99
2018-04-17T08:04:53.028Z,1019.03
2018-04-17T08:05:53.011Z,1019.02
2018-04-17T08:06:52.991Z,1019.05
2018-04-17T08:07:52.973Z,1019.08
2018-04-17T08:08:52.954Z,1019.06
2018-04-17T08:09:52.938Z,1019.05
2018-04-17T08:10:52.918Z,1019.10
2018-04-17T08:11:52.957Z,1019.04
2018-04-17T08:12:52.891Z,1019.09
2018-04-17T08:13:52.864Z,1019.10
2018-04-17T08:14:52.856Z,1019.14
2018-04-17T08:15:52.828Z,1019.13
2018-04-17T08:16:52.814Z,1019.13
2018-04-17T08:17:52.794Z,1019.12
2018-04-17T08:18:52.775Z,1019.16
2018-04-17T08:19:52.758Z,1019.19
2018-04-17T08:20:52.743Z,1019.18
2018-04-17T08:21:52.721Z,1019.16
2018-04-17T08:22:52.705Z,1019.17
2018-04-17T08:23:52.687Z,1019.20
2018-04-17T08:24:52.669Z,1019.20
2018-04-17T08:25:52.650Z,1019.18
2018-04-17T08:26:52.634Z,1019.26
2018-04-17T08:27:52.674Z,1019.27
2018-04-17T08:28:52.597Z,1019.24
2018-04-17T08:29:52.582Z,1019.20
2018-04-17T08:30:52.562Z,1019.24
2018-04-17T08:31:52.544Z,1019.22
2018-04-17T08:32:52.527Z,1019.22
2018-04-17T08:33:52.533Z,1019.24
2018-04-17T08:34:52.544Z,1019.25
2018-04-17T08:35:52.476Z,1019.24
2018-04-17T08:36:52.469Z,1019.27
2018-04-17T08:37:52.438Z,1019.22
2018-04-17T08:38:52.422Z,1019.22
2018-04-17T08:39:52.407Z,1019.23
2018-04-17T08:40:52.386Z,1019.18
2018-04-17T08:41:52.369Z,1019.25
2018-04-17T08:42:52.351Z,1019.20
2018-04-17T08:43:52.332Z,1019.22
2018-04-17T08:44:52.316Z,1019.20
2018-04-17T08:45:52.297Z,1019.16
2018-04-17T08:46:52.283Z,1019.14
2018-04-17T08:47:52.262Z,1019.18
2018-04-17T08:48:52.304Z,1019.21
2018-04-17T08:49:52.228Z,1019.19
2018-04-17T08:50:52.214Z,1019.17
2018-04-17T08:51:52.196Z,1019.23
2018-04-17T08:52:52.179Z,1019.22
2018-04-17T08:53:52.160Z,1019.24
2018-04-17T08:54:52.143Z,1019.19
2018-04-17T08:55:52.126Z,1019.24
2018-04-17T08:56:52.111Z,1019.21
2018-04-17T08:57:52.093Z,1019.25
2018-04-17T08:58:52.074Z,1019.23
2018-04-17T08:59:52.057Z,1019.25
2018-04-17T09:00:52.039Z,1019.22
2018-04-17T09:01:52.023Z,1019.23
2018-04-17T09:02:52.010Z,1019.20
2018-04-17T09:03:51.989Z,1019.21
2018-04-17T09:04:51.974Z,1019.23
2018-04-17T09:05:52.534Z,1019.21
2018-04-17T09:06:51.938Z,1019.24
2018-04-17T09:07:51.921Z,1019.24
2018-04-17T09:08:51.905Z,1019.24
2018-04-17T09:09:51.887Z,1019.25
2018-04-17T09:10:51.870Z,1019.21
2018-04-17T09:11:51.937Z,1019.23
2018-04-17T09:12:51.843Z,1019.23
2018-04-17T09:13:51.821Z,1019.22
2018-04-17T09:14:51.804Z,1019.19
2018-04-17T09:15:51.787Z,1019.23
2018-04-17T09:16:51.773Z,1019.23
2018-04-17T09:17:51.754Z,1019.14
2018-04-17T09:18:51.737Z,1019.19
2018-04-17T09:19:51.723Z,1019.15
2018-04-17T09:20:51.704Z,1019.15
2018-04-17T09:21:51.694Z,1019.17
2018-04-17T09:22:51.670Z,1019.13
2018-04-17T09:23:51.699Z,1019.11
2018-04-17T09:24:51.638Z,1019.13
2018-04-17T09:25:51.625Z,1019.14
2018-04-17T09:26:51.606Z,1019.12
2018-04-17T09:27:51.589Z,1019.13
2018-04-17T09:28:51.574Z,1019.12
2018-04-17T09:29:51.556Z,1019.08
2018-04-17T09:30:51.542Z,1019.07
2018-04-17T09:31:51.523Z,1019.11
2018-04-17T09:32:51.508Z,1019.13
2018-04-17T09:33:51.497Z,1019.09
2018-04-17T09:34:51.476Z,1019.09
2018-04-17T09:35:51.458Z,1019.04
2018-04-17T09:36:51.445Z,1019.04
2018-04-17T09:37:51.425Z,1019.03
2018-04-17T09:38:51.427Z,1019.05
2018-04-17T09:39:51.394Z,1018.98
2018-04-17T09:40:51.378Z,1019.00
2018-04-17T09:41:51.363Z,1019.01
2018-04-17T09:42:51.343Z,1018.97
2018-04-17T09:43:51.330Z,1019.03
2018-04-17T09:44:51.314Z,1019.07
2018-04-17T09:45:51.296Z,1019.03
2018-04-17T09:46:51.282Z,1019.02
2018-04-17T09:47:51.264Z,1019.04
2018-04-17T09:48:51.249Z,1019.01
2018-04-17T09:49:51.233Z,1018.99
2018-04-17T09:50:51.218Z,1019.00
2018-04-17T09:51:51.199Z,1019.01
2018-04-17T09:52:51.186Z,1019.01
2018-04-17T09:53:51.169Z,1019.07
2018-04-17T09:54:51.155Z,1019.07
2018-04-17T09:55:51.135Z,1019.08
2018-04-17T09:56:51.123Z,1019.14
2018-04-17T09:57:51.109Z,1019.15
2018-04-17T09:58:51.109Z,1019.21
2018-04-17T09:59:51.075Z,1019.17
2018-04-17T10:00:51.073Z,1019.21
2018-04-17T10:01:51.043Z,1019.19
2018-04-17T10:02:51.027Z,1019.18
2018-04-17T10:03:51.015Z,1019.24
2018-04-17T10:04:50.997Z,1019.22
2018-04-17T10:05:50.979Z,1019.20
2018-04-17T10:06:50.966Z,1019.23
2018-04-17T10:07:50.949Z,1019.17
2018-04-17T10:08:50.969Z,1019.25
2018-04-17T10:09:50.918Z,1019.24
2018-04-17T10:10:50.903Z,1019.21
2018-04-17T10:11:50.887Z,1019.21
2018-04-17T10:12:50.873Z,1019.16
2018-04-17T10:13:50.857Z,1019.21
2018-04-17T10:14:50.843Z,1019.13
2018-04-17T10:15:50.828Z,1019.15
2018-04-17T10:16:50.814Z,1019.13
2018-04-17T10:17:50.796Z,1019.17
2018-04-17T10:18:50.780Z,1019.15
2018-04-17T10:19:50.767Z,1019.12
2018-04-17T10:20:50.752Z,1019.17
2018-04-17T10:21:50.736Z,1019.18
2018-04-17T10:22:50.721Z,1019.22
2018-04-17T10:23:50.707Z,1019.29
2018-04-17T10:24:50.692Z,1019.41
2018-04-17T10:25:50.678Z,1019.39
2018-04-17T10:26:50.664Z,1019.41
2018-04-17T10:27:50.648Z,1019.38
2018-04-17T10:28:50.633Z,1019.47
2018-04-17T10:29:50.642Z,1019.62
2018-04-17T10:30:50.606Z,1019.25
2018-04-17T10:31:50.596Z,1019.42
2018-04-17T10:32:50.580Z,1019.17
2018-04-17T10:33:50.564Z,1019.57
2018-04-17T10:34:50.553Z,1019.23
2018-04-17T10:35:50.541Z,1019.50
2018-04-17T10:36:50.532Z,1019.38
2018-04-17T10:37:50.513Z,1019.16
2018-04-17T10:38:50.498Z,1019.35
2018-04-17T10:39:50.486Z,1019.38
2018-04-17T10:40:50.498Z,1019.27
2018-04-17T10:41:50.463Z,1019.56
2018-04-17T10:42:50.450Z,1019.47
2018-04-17T10:43:50.436Z,1019.54
2018-04-17T10:44:50.429Z,1019.58
2018-04-17T10:45:50.410Z,1019.57
2018-04-17T10:46:50.398Z,1019.53
2018-04-17T10:47:50.384Z,1019.47
2018-04-17T10:48:50.374Z,1019.46
2018-04-17T10:49:50.364Z,1019.29
2018-04-17T10:50:50.352Z,1019.09
2018-04-17T10:51:50.340Z,1019.31
2018-04-17T10:52:50.342Z,1019.31
2018-04-17T10:53:50.327Z,1019.41
2018-04-17T10:54:50.308Z,1019.38
2018-04-17T10:55:50.298Z,1019.38
2018-04-17T10:56:50.290Z,1019.16
2018-04-17T10:57:50.277Z,1019.16
2018-04-17T10:58:50.272Z,1019.08
2018-04-17T10:59:50.309Z,1019.10
2018-04-17T11:00:50.247Z,1018.98
2018-04-17T11:01:50.245Z,1019.14
2018-04-17T11:02:50.232Z,1019.18
2018-04-17T11:03:50.221Z,1019.13
2018-04-17T11:04:50.254Z,1019.01
2018-04-17T11:05:50.201Z,1018.99
2018-04-17T11:06:50.194Z,1019.05
2018-04-17T11:07:50.185Z,1019.17
2018-04-17T11:08:50.487Z,1019.09
2018-04-17T11:09:50.170Z,1019.13
2018-04-17T11:10:52.969Z,1019.16
2018-04-17T11:11:50.151Z,1019.06
2018-04-17T11:12:50.143Z,1019.15
2018-04-17T11:13:50.136Z,1019.19
2018-04-17T11:14:50.130Z,1019.10
2018-04-17T11:15:50.121Z,1019.19
2018-04-17T11:16:50.113Z,1019.15
2018-04-17T11:17:50.105Z,1019.19
2018-04-17T11:18:50.100Z,1019.01
2018-04-17T11:19:50.092Z,1019.11
2018-04-17T11:20:50.086Z,1019.16
2018-04-17T11:21:50.079Z,1019.19
2018-04-17T11:22:50.075Z,1019.25
2018-04-17T11:23:50.067Z,1019.25
2018-04-17T11:24:50.060Z,1019.23
2018-04-17T11:25:50.054Z,1019.19
2018-04-17T11:26:50.050Z,1019.22
2018-04-17T11:27:50.053Z,1019.21
2018-04-17T11:28:50.036Z,1019.15
2018-04-17T11:29:50.030Z,1019.17
2018-04-17T11:30:50.025Z,1019.13
2018-04-17T11:31:50.018Z,1019.07
2018-04-17T11:32:50.011Z,1019.08
2018-04-17T11:33:50.008Z,1019.10
2018-04-17T11:34:50.002Z,1019.10
2018-04-17T11:35:49.998Z,1019.21
2018-04-17T11:36:49.992Z,1019.08
2018-04-17T11:37:49.986Z,1019.15
2018-04-17T11:38:49.980Z,1019.16
2018-04-17T11:39:50.482Z,1019.14
2018-04-17T11:40:49.975Z,1019.15
2018-04-17T11:41:49.975Z,1019.12
2018-04-17T11:42:49.979Z,1019.14
2018-04-17T11:43:49.963Z,1019.13
2018-04-17T11:44:49.958Z,1019.11
2018-04-17T11:45:49.952Z,1019.17
2018-04-17T11:46:49.949Z,1019.18
2018-04-17T11:47:49.945Z,1019.19
2018-04-17T11:48:49.943Z,1019.17
2018-04-17T11:49:49.940Z,1019.17
2018-04-17T11:50:49.936Z,1019.11
2018-04-17T11:51:49.935Z,1019.11
2018-04-17T11:52:49.932Z,1019.16
2018-04-17T11:53:49.928Z,1019.12
2018-04-17T11:54:49.930Z,1019.05
2018-04-17T11:55:49.922Z,1019.12
2018-04-17T11:56:49.921Z,1019.16
2018-04-17T11:57:49.917Z,1019.13
2018-04-17T11:58:49.917Z,1019.16
2018-04-17T11:59:49.910Z,1019.12
2018-04-17T12:00:49.911Z,1019.13
2018-04-17T12:01:49.909Z,1019.17
2018-04-17T12:02:49.905Z,1019.15
2018-04-17T12:03:49.903Z,1019.13
2018-04-17T12:04:49.900Z,1019.20